Laie, HI (96762)

7:59 PM HST on November 20, 2017 (GMT -1000)
Sunset Beach Earth Station | | Change Station
Active Advisory: High Surf Advisory Active Notice: High Surf Advisory

Elev 459 ft 21.67 °N, 158.03 °W | Updated 5 minutes ago

Rain
Rain
66.2 °F
Feels Like 66.2 °F
N
0.0
Wind Variable Wind from ENE
Gusts 3.0 mph

Today
High -- | Low -- °F
--% Chance of Precip.
Yesterday
High -- | Low -- °F
Precip. -- in
Pressure 29.96 in
Visibility 10.0 miles
Clouds Scattered Clouds 2900 ft
Scattered Clouds 3600 ft
Overcast 4800 ft
Dew Point 63 °F
Humidity 90%
Rainfall 0.00 in
Snow Depth Not available.
6:46 AM 5:48 PM
Waxing Crescent, 7% visible
METAR PHHI 210556Z AUTO 02003KT 10SM SCT029 SCT036 OVC048 19/17 A2997 RMK AO2 DZB43E44RAB44E54 SLP145 P0000 60003 T01850166 10226 20173 52016 FZRANO $
Pressure 29.96 in
Visibility 10.0 miles
Clouds Scattered Clouds 2900 ft
Scattered Clouds 3600 ft
Overcast 4800 ft
Dew Point 63 °F
Humidity 90%
Rainfall 0.00 in
Snow Depth Not available.
6:46 AM 5:48 PM
Waxing Crescent, 7% visible
METAR PHHI 210556Z AUTO 02003KT 10SM SCT029 SCT036 OVC048 19/17 A2997 RMK AO2 DZB43E44RAB44E54 SLP145 P0000 60003 T01850166 10226 20173 52016 FZRANO $

Get Your Daily Forecast Email!

Thanks for signing up!

Be on the lookout for a verification email in your inbox.

You'll start receiving severe weather alerts in your inbox..

×

10-Day Weather Forecast

Almanac

Astronomy

Nov. 20, 2017 Rise Set
Actual Time
Civil Twilight
Nautical Twilight
Astronomical Twilight
Moon
Length of Visible Light
Length of Day
Tomorrow will be .
, % of the Moon is Illuminated

Today's Extremes

State Highs State Lows

Community

WunderPhotos

Category 6

Welcome to Category 6. This is the collective home for Weather Underground's featured writeups by Dr. Jeff Masters (right), Bob Henson (left), Chris Burt, and other regular contributors.

Nearby

Air Quality

  Air Quality AQ Index Pollutant
Not available.

Snow Depth

Station Depth Elevation

Earthquake Activity

City Distance Mag. Time & Date
Minimum magnitude displayed is 2.5.

Coastal Water Temperatures

Place Temperature

Stations

Nearby Weather Stations

Station Location Temp. Windchill Dew Point Humidity Wind Precip. Elev Updated Type
                   

Watches & Warnings

High Surf Advisory
Issued: 3:32 PM HST Nov. 20, 2017 – National Weather Service

... High surf advisory now in effect until noon HST Tuesday...

* surf... surf will be 12 to 18 feet through tonight, lowering to
10 to 15 feet Tuesday morning.

* Timing... advisory level surf is expected through Tuesday
morning, then will subside Tuesday afternoon.

* Impacts... moderate... expect strong breaking waves, shore
break, and strong longshore and rip currents making swimming
difficult and dangerous.

Precautionary/preparedness actions...

Beachgoers, swimmers, and surfers should heed all advice given by
ocean safety officials and exercise caution. When in doubt, do
not go out.